Time;durP1;ratioP1;P1;durP2;ratioP2;P2;SDS_P1;SDS_P2;PMS_P1;PMS_P2;Temp;Humidity;BMP_temperature;BMP_pressure;BME280_temperature;BME280_humidity;BME280_pressure;Samples;Min_cycle;Max_cycle;Signal;HPM_P1;HPM_P2
2023/03/21 00:01:02;;;;;;;11.45;5.53;;;;;;;10.37;100.00;101565.69;5097420;28;20036;-66
2023/03/21 00:03:33;;;;;;;10.98;5.65;;;;;;;10.35;100.00;101552.31;5113969;27;20075;-65
2023/03/21 00:06:06;;;;;;;11.02;5.97;;;;;;;10.31;100.00;101555.78;5096738;28;20165;-63
2023/03/21 00:08:34;;;;;;;12.77;6.18;;;;;;;10.26;100.00;101550.22;5094306;28;20048;-65
2023/03/21 00:11:04;;;;;;;11.80;6.03;;;;;;;10.30;100.00;101551.41;5094112;28;20044;-65
2023/03/21 00:13:37;;;;;;;14.80;6.68;;;;;;;10.28;100.00;101551.66;5094685;28;20055;-66
2023/03/21 00:16:14;;;;;;;11.23;5.78;;;;;;;10.24;100.00;101540.38;5115137;28;20433;-66
2023/03/21 00:18:53;;;;;;;15.55;7.45;;;;;;;10.18;100.00;101541.38;5114614;28;20039;-65
2023/03/21 00:21:31;;;;;;;9.18;4.18;;;;;;;10.18;100.00;101544.13;5113533;28;20496;-65
2023/03/21 00:24:18;;;;;;;7.70;4.90;;;;;;;10.21;100.00;101546.34;5114083;28;20039;-65
2023/03/21 00:26:46;;;;;;;15.15;5.97;;;;;;;10.34;100.00;101538.94;5113184;28;20576;-66
2023/03/21 00:29:14;;;;;;;11.63;6.32;;;;;;;10.32;100.00;101532.91;5113379;28;20078;-65
2023/03/21 00:31:41;;;;;;;4.63;2.40;;;;;;;10.47;100.00;101538.59;5114859;28;20051;-65
2023/03/21 00:34:10;;;;;;;13.32;6.10;;;;;;;10.56;100.00;101541.72;5096749;28;20585;-66
2023/03/21 00:36:42;;;;;;;14.25;5.13;;;;;;;10.71;100.00;101524.78;5076588;28;20097;-66
2023/03/21 00:39:10;;;;;;;10.60;5.57;;;;;;;10.55;100.00;101535.44;5092683;28;20062;-65
2023/03/21 00:41:38;;;;;;;7.22;3.20;;;;;;;10.48;100.00;101534.78;5094217;28;20140;-65
2023/03/21 00:44:12;;;;;;;14.07;6.60;;;;;;;10.34;100.00;101528.03;5094298;28;20101;-65
2023/03/21 00:46:41;;;;;;;16.67;7.53;;;;;;;10.27;100.00;101525.47;5107715;28;20048;-65
2023/03/21 00:49:27;;;;;;;12.02;5.30;;;;;;;10.30;100.00;101521.47;5099324;28;20047;-65
2023/03/21 00:51:55;;;;;;;11.00;6.20;;;;;;;10.22;100.00;101520.78;5114000;28;20052;-64
2023/03/21 00:54:32;;;;;;;9.77;4.60;;;;;;;10.27;100.00;101519.19;5114109;28;20491;-65
2023/03/21 00:57:02;;;;;;;10.73;4.95;;;;;;;10.26;100.00;101520.25;5092351;28;20051;-65
2023/03/21 00:59:30;;;;;;;11.10;5.07;;;;;;;10.21;100.00;101513.66;5076194;28;20075;-65
2023/03/21 01:01:59;;;;;;;13.85;6.63;;;;;;;10.20;100.00;101506.56;5092508;28;20047;-65
2023/03/21 01:04:27;;;;;;;10.82;5.70;;;;;;;10.19;100.00;101501.34;5093385;28;20152;-64
2023/03/21 01:06:55;;;;;;;7.00;3.20;;;;;;;10.26;100.00;101495.75;5107333;28;20135;-65
2023/03/21 01:09:24;;;;;;;8.60;4.55;;;;;;;10.37;100.00;101494.88;5112757;28;20040;-64
2023/03/21 01:11:52;;;;;;;8.38;3.25;;;;;;;10.42;100.00;101494.94;5112367;28;20067;-65
2023/03/21 01:14:21;;;;;;;11.68;5.38;;;;;;;10.31;100.00;101495.84;5113800;28;20047;-66
2023/03/21 01:16:52;;;;;;;9.43;5.10;;;;;;;10.27;100.00;101492.78;5091615;28;20060;-65
2023/03/21 01:19:22;;;;;;;11.93;5.13;;;;;;;10.34;100.00;101490.75;5099407;28;20036;-66
2023/03/21 01:21:59;;;;;;;10.43;4.80;;;;;;;10.29;100.00;101489.81;5075869;28;20450;-65
2023/03/21 01:24:27;;;;;;;10.00;5.05;;;;;;;10.24;100.00;101480.47;5093577;28;20452;-65
2023/03/21 01:26:55;;;;;;;8.25;4.75;;;;;;;10.23;100.00;101478.81;5095349;28;20537;-65
2023/03/21 01:29:23;;;;;;;15.20;7.63;;;;;;;10.21;100.00;101480.97;5112982;28;20441;-65
2023/03/21 01:31:50;;;;;;;15.15;7.38;;;;;;;10.19;100.00;101477.66;5112472;28;20043;-66
2023/03/21 01:34:18;;;;;;;15.20;6.80;;;;;;;10.16;100.00;101467.28;5111100;28;20122;-66
2023/03/21 01:36:46;;;;;;;13.32;7.15;;;;;;;10.12;100.00;101473.47;5094838;28;20048;-66
2023/03/21 01:39:18;;;;;;;13.05;6.65;;;;;;;10.09;100.00;101473.97;5076609;28;20487;-64
2023/03/21 01:41:48;;;;;;;14.73;6.35;;;;;;;10.12;100.00;101466.13;5075601;28;20040;-65
2023/03/21 01:44:25;;;;;;;18.10;7.22;;;;;;;10.09;100.00;101455.75;5098655;28;20386;-65
2023/03/21 01:46:53;;;;;;;15.10;6.20;;;;;;;10.09;100.00;101453.00;5112598;28;20438;-64
2023/03/21 01:49:48;;;;;;;15.45;7.00;;;;;;;10.10;100.00;101456.56;5113905;28;20039;-64
2023/03/21 01:52:24;;;;;;;16.85;7.40;;;;;;;10.07;100.00;101452.44;5095882;28;20047;-65
2023/03/21 01:55:17;;;;;;;13.50;6.82;;;;;;;10.08;100.00;101451.38;5086274;28;20491;-65
2023/03/21 01:58:03;;;;;;;16.77;6.93;;;;;;;10.08;100.00;101448.66;5098271;28;20036;-65
2023/03/21 02:00:57;;;;;;;14.70;5.63;;;;;;;10.09;100.00;101439.41;5103437;28;20058;-65
2023/03/21 02:03:51;;;;;;;18.50;7.00;;;;;;;10.10;100.00;101446.50;5094859;28;20399;-64
2023/03/21 02:07:06;;;;;;;17.40;7.00;;;;;;;10.15;100.00;101437.56;5095427;28;20059;-65
2023/03/21 02:09:58;;;;;;;12.52;6.18;;;;;;;10.14;100.00;101435.94;5081375;28;20042;-65
2023/03/21 02:12:26;;;;;;;12.85;6.28;;;;;;;10.16;100.00;101431.06;5101213;27;20095;-65
2023/03/21 02:14:55;;;;;;;15.98;6.15;;;;;;;10.16;100.00;101431.06;5094900;28;20051;-65
2023/03/21 02:17:53;;;;;;;11.32;5.05;;;;;;;10.19;100.00;101428.66;5095665;28;20561;-66
2023/03/21 02:20:54;;;;;;;11.25;4.45;;;;;;;10.19;100.00;101423.22;5079943;28;20097;-66
2023/03/21 02:23:35;;;;;;;12.55;5.10;;;;;;;10.21;100.00;101417.53;5096716;27;20111;-65
2023/03/21 02:26:32;;;;;;;11.73;4.93;;;;;;;10.22;100.00;101420.00;5095756;28;20105;-65
2023/03/21 02:29:17;;;;;;;13.68;5.90;;;;;;;10.20;100.00;101408.53;5105162;28;20039;-65
2023/03/21 02:32:14;;;;;;;12.13;4.95;;;;;;;10.22;100.00;101406.38;5115698;27;20112;-65
2023/03/21 02:35:21;;;;;;;9.43;4.40;;;;;;;10.23;100.00;101404.47;5101420;28;20063;-65
2023/03/21 02:38:02;;;;;;;9.45;3.65;;;;;;;10.27;100.00;101408.34;5101601;28;20055;-66
2023/03/21 02:40:40;;;;;;;13.05;5.72;;;;;;;10.26;100.00;101397.69;5078980;28;20438;-66
2023/03/21 02:43:14;;;;;;;12.90;5.68;;;;;;;10.22;100.00;101397.38;5096655;28;20056;-67
2023/03/21 02:45:52;;;;;;;9.30;4.07;;;;;;;10.28;100.00;101392.84;5095439;28;20082;-65
2023/03/21 02:48:30;;;;;;;14.27;5.13;;;;;;;10.29;100.00;101394.50;5096029;28;20048;-65
2023/03/21 02:51:19;;;;;;;10.43;4.28;;;;;;;10.28;100.00;101398.28;5080842;28;20048;-64
2023/03/21 02:53:51;;;;;;;8.80;4.28;;;;;;;10.31;100.00;101392.34;5114400;27;20213;-65
2023/03/21 02:56:40;;;;;;;8.10;3.70;;;;;;;10.38;100.00;101399.25;5114825;28;20044;-64
2023/03/21 02:59:08;;;;;;;10.57;4.65;;;;;;;10.33;100.00;101395.66;5098636;28;20166;-64
2023/03/21 03:01:37;;;;;;;9.00;4.15;;;;;;;10.33;100.00;101388.28;5100945;28;20048;-64
2023/03/21 03:04:21;;;;;;;8.18;4.50;;;;;;;10.36;100.00;101393.22;5125375;27;20364;-65
2023/03/21 03:07:05;;;;;;;9.80;4.57;;;;;;;10.36;100.00;101395.97;5117661;28;20095;-65
2023/03/21 03:09:51;;;;;;;14.07;5.70;;;;;;;10.29;100.00;101386.31;5123320;28;20058;-65
2023/03/21 03:12:30;;;;;;;11.75;5.05;;;;;;;10.23;100.00;101386.22;5118728;28;20047;-66
2023/03/21 03:15:06;;;;;;;12.30;4.85;;;;;;;10.29;100.00;101378.97;5118917;27;20112;-65
2023/03/21 03:18:11;;;;;;;10.90;4.38;;;;;;;10.32;100.00;101381.22;5095235;28;20558;-66
2023/03/21 03:20:57;;;;;;;8.25;3.97;;;;;;;10.35;100.00;101383.44;5024424;28;20057;-64
2023/03/21 03:23:28;;;;;;;;;;;;;;;10.36;100.00;101378.78;5080891;27;20046;-65
2023/03/21 03:26:09;;;;;;;10.98;5.13;;;;;;;10.33;100.00;101374.69;5094558;28;19920;-65
2023/03/21 03:28:40;;;;;;;16.02;6.45;;;;;;;10.28;100.00;101382.78;5061354;28;20055;-66
2023/03/21 03:31:14;;;;;;;;;;;;;;;10.31;100.00;101371.38;5079424;28;20044;-65
2023/03/21 03:33:53;;;;;;;7.15;3.92;;;;;;;10.29;100.00;101372.72;5080075;27;19965;-66
2023/03/21 03:36:26;;;;;;;10.85;4.78;;;;;;;10.27;100.00;101369.38;5132026;27;20043;-64
2023/03/21 03:39:09;;;;;;;11.75;5.47;;;;;;;10.26;100.00;101365.03;5094164;28;20048;-64
2023/03/21 03:41:52;;;;;;;10.23;4.20;;;;;;;10.28;100.00;101368.31;5094372;28;20040;-64
2023/03/21 03:44:41;;;;;;;13.52;5.63;;;;;;;10.21;100.00;101358.44;5094151;28;20051;-65
2023/03/21 03:47:20;;;;;;;14.02;6.72;;;;;;;10.20;100.00;101364.97;5077410;28;20048;-65
2023/03/21 03:50:07;;;;;;;10.88;6.20;;;;;;;10.15;100.00;101362.16;5093842;28;20070;-66
2023/03/21 03:52:44;;;;;;;14.52;6.00;;;;;;;10.16;100.00;101360.25;5104949;28;20124;-64
2023/03/21 03:55:26;;;;;;;12.15;5.50;;;;;;;10.18;100.00;101360.84;5099430;28;20048;-66
2023/03/21 03:57:57;;;;;;;12.27;4.72;;;;;;;10.12;100.00;101357.22;5080920;28;20036;-65
2023/03/21 04:00:26;;;;;;;11.27;4.53;;;;;;;10.15;100.00;101351.28;5114404;28;20074;-66
2023/03/21 04:02:54;;;;;;;11.98;6.18;;;;;;;10.14;100.00;101352.34;5094085;28;20044;-66
2023/03/21 04:05:25;;;;;;;11.52;5.35;;;;;;;10.14;100.00;101355.06;5093110;28;20092;-65
2023/03/21 04:07:53;;;;;;;11.13;4.85;;;;;;;10.14;100.00;101348.78;5093720;28;20072;-65
2023/03/21 04:10:29;;;;;;;12.32;5.97;;;;;;;10.17;100.00;101340.97;5078443;28;20055;-65
2023/03/21 04:12:57;;;;;;;10.68;5.30;;;;;;;10.18;100.00;101345.31;5079144;27;20077;-65
2023/03/21 04:15:30;;;;;;;13.95;5.90;;;;;;;10.16;100.00;101347.47;5093583;28;20071;-66
2023/03/21 04:18:05;;;;;;;7.30;3.92;;;;;;;10.21;100.00;101349.44;5093572;28;20475;-65
2023/03/21 04:20:32;;;;;;;7.32;3.83;;;;;;;10.33;100.00;101341.19;5094668;28;20048;-65
2023/03/21 04:23:06;;;;;;;9.63;4.45;;;;;;;10.39;100.00;101342.88;5093326;28;20089;-65
2023/03/21 04:25:35;;;;;;;10.40;4.78;;;;;;;10.30;100.00;101337.06;5112998;27;20088;-66
2023/03/21 04:28:07;;;;;;;14.40;5.55;;;;;;;10.26;100.00;101335.06;5113623;28;20043;-65
2023/03/21 04:30:49;;;;;;;7.80;3.40;;;;;;;10.30;100.00;101336.25;5081874;28;20043;-65
2023/03/21 04:33:37;;;;;;;8.15;3.95;;;;;;;10.38;100.00;101330.34;5098601;27;20499;-67
2023/03/21 04:36:08;;;;;;;5.32;2.95;;;;;;;10.40;100.00;101320.84;5096326;28;20048;-64
2023/03/21 04:38:37;;;;;;;11.13;4.95;;;;;;;10.43;100.00;101325.75;5114504;28;20488;-64
2023/03/21 04:41:06;;;;;;;11.93;5.20;;;;;;;10.31;100.00;101326.97;5113190;28;20479;-65
2023/03/21 04:43:33;;;;;;;7.43;3.80;;;;;;;10.25;100.00;101323.34;5113893;28;20059;-65
2023/03/21 04:46:02;;;;;;;11.77;4.55;;;;;;;10.28;100.00;101322.03;5108860;27;20043;-65
2023/03/21 04:48:30;;;;;;;10.68;4.82;;;;;;;10.25;100.00;101320.63;5093174;28;20051;-65
2023/03/21 04:51:00;;;;;;;15.10;7.07;;;;;;;10.23;100.00;101320.88;5092676;28;20055;-65
2023/03/21 04:53:28;;;;;;;11.82;5.25;;;;;;;10.21;100.00;101317.56;5075862;28;20047;-66
2023/03/21 04:55:56;;;;;;;9.75;4.53;;;;;;;10.18;100.00;101309.09;5103237;27;20047;-66
2023/03/21 04:58:25;;;;;;;8.73;3.70;;;;;;;10.17;100.00;101307.44;5094393;28;20052;-65
2023/03/21 05:00:52;;;;;;;14.68;5.95;;;;;;;10.21;100.00;101306.69;5093486;28;20055;-68
2023/03/21 05:03:20;;;;;;;13.07;5.68;;;;;;;10.17;100.00;101308.28;5092829;28;20063;-67
2023/03/21 05:05:48;;;;;;;15.20;6.97;;;;;;;10.12;100.00;101301.94;5097527;28;20059;-65
2023/03/21 05:08:18;;;;;;;12.93;5.45;;;;;;;10.09;100.00;101297.81;5112648;28;20423;-65
2023/03/21 05:10:49;;;;;;;13.50;6.10;;;;;;;10.14;100.00;101302.50;5111322;28;20039;-70
2023/03/21 05:13:17;;;;;;;8.07;3.60;;;;;;;10.22;100.00;101305.63;5111679;28;20082;-65
2023/03/21 05:15:45;;;;;;;15.55;6.55;;;;;;;10.12;100.00;101302.75;5095389;28;20073;-68
2023/03/21 05:18:13;;;;;;;12.73;6.47;;;;;;;10.05;100.00;101307.56;5093006;28;20079;-65
2023/03/21 05:20:58;;;;;;;9.50;4.22;;;;;;;10.11;100.00;101303.03;5092448;28;20066;-65
2023/03/21 05:23:30;;;;;;;16.45;6.78;;;;;;;10.10;100.00;101299.47;5059050;28;20036;-66
2023/03/21 05:25:58;;;;;;;18.67;7.90;;;;;;;9.97;100.00;101299.84;5092136;28;20044;-65
2023/03/21 05:28:38;;;;;;;15.38;7.90;;;;;;;9.86;100.00;101303.50;5111500;28;20039;-66
2023/03/21 05:31:07;;;;;;;17.02;7.75;;;;;;;9.78;100.00;101296.59;5117960;28;20051;-64
2023/03/21 05:33:35;;;;;;;19.02;7.75;;;;;;;9.74;100.00;101304.44;5116223;28;20487;-64
2023/03/21 05:36:03;;;;;;;15.45;7.07;;;;;;;9.82;100.00;101297.75;5111786;28;20035;-65
2023/03/21 05:38:32;;;;;;;16.52;7.53;;;;;;;9.87;100.00;101299.72;5093296;28;20051;-66
2023/03/21 05:41:00;;;;;;;12.07;6.28;;;;;;;9.93;100.00;101298.69;5096049;28;20052;-66
2023/03/21 05:43:29;;;;;;;13.82;6.13;;;;;;;9.99;100.00;101303.13;5079525;28;20070;-64
2023/03/21 05:45:57;;;;;;;15.85;6.60;;;;;;;10.01;100.00;101301.00;5095852;28;20040;-65
2023/03/21 05:48:29;;;;;;;10.18;4.30;;;;;;;10.05;100.00;101293.13;5085533;28;20040;-65
2023/03/21 05:51:17;;;;;;;14.57;6.70;;;;;;;10.08;100.00;101295.34;5084697;28;20118;-65
2023/03/21 05:53:46;;;;;;;11.95;4.63;;;;;;;10.12;100.00;101297.31;5115127;28;20048;-66
2023/03/21 05:56:15;;;;;;;11.63;5.07;;;;;;;10.15;100.00;101295.97;5095932;28;20059;-65
2023/03/21 05:59:04;;;;;;;14.73;6.18;;;;;;;10.11;100.00;101287.50;5096236;28;20048;-66
2023/03/21 06:01:38;;;;;;;17.25;6.25;;;;;;;10.09;100.00;101286.09;5110277;28;20131;-66
2023/03/21 06:04:10;;;;;;;14.32;6.70;;;;;;;10.07;100.00;101294.53;5095848;28;20412;-65
2023/03/21 06:06:39;;;;;;;16.33;6.60;;;;;;;10.07;100.00;101288.25;5097982;28;20557;-66
2023/03/21 06:09:12;;;;;;;11.95;4.72;;;;;;;10.08;100.00;101290.75;5115739;28;20410;-66
2023/03/21 06:11:51;;;;;;;12.70;5.72;;;;;;;10.09;100.00;101294.28;5116829;27;20097;-66
2023/03/21 06:14:26;;;;;;;12.07;5.90;;;;;;;10.09;100.00;101286.94;5096604;28;20070;-66
2023/03/21 06:17:09;;;;;;;10.02;4.18;;;;;;;10.18;100.00;101282.69;5080701;28;20079;-65
2023/03/21 06:19:43;;;;;;;6.15;3.08;;;;;;;10.30;100.00;101288.03;5112356;28;20052;-65
2023/03/21 06:22:17;;;;;;;10.57;3.95;;;;;;;10.40;100.00;101290.06;5095600;27;20373;-65
2023/03/21 06:24:45;;;;;;;8.20;3.47;;;;;;;10.39;100.00;101288.38;5116093;28;20036;-66
2023/03/21 06:27:16;;;;;;;9.02;3.10;;;;;;;10.40;100.00;101288.16;5116074;28;20115;-66
2023/03/21 06:29:53;;;;;;;11.27;5.05;;;;;;;10.40;100.00;101293.59;5115893;28;20062;-67
2023/03/21 06:32:22;;;;;;;11.45;5.18;;;;;;;10.32;100.00;101296.78;5094727;28;20044;-65
2023/03/21 06:34:55;;;;;;;6.28;2.80;;;;;;;10.36;100.00;101292.44;5094633;27;20120;-66
2023/03/21 06:37:25;;;;;;;11.27;4.47;;;;;;;10.35;100.00;101293.53;5103912;28;20532;-66
2023/03/21 06:39:53;;;;;;;9.73;3.83;;;;;;;10.41;100.00;101294.41;5099220;28;20046;-65
2023/03/21 06:42:23;;;;;;;8.82;3.42;;;;;;;10.43;100.00;101297.72;5114600;27;20114;-67
2023/03/21 06:44:52;;;;;;;9.15;3.78;;;;;;;10.49;100.00;101291.25;5115751;28;20087;-64
2023/03/21 06:47:20;;;;;;;11.82;4.47;;;;;;;10.52;100.00;101296.19;5104903;28;20044;-66
2023/03/21 06:49:49;;;;;;;14.57;4.88;;;;;;;10.50;100.00;101297.50;4387546;27;9999920;-67
2023/03/21 06:52:16;;;;;;;14.65;6.63;;;;;;;10.41;100.00;101299.84;5091143;28;20466;-67
2023/03/21 06:54:44;;;;;;;15.57;5.63;;;;;;;10.34;100.00;101300.06;5095233;28;20047;-65
2023/03/21 06:57:14;;;;;;;14.35;4.68;;;;;;;10.40;100.00;101299.03;5110209;28;20059;-66
2023/03/21 06:59:42;;;;;;;12.07;4.93;;;;;;;10.35;100.00;101295.44;5105041;28;20058;-66
2023/03/21 07:02:15;;;;;;;12.43;5.55;;;;;;;10.39;100.00;101302.00;5106125;28;20039;-66
2023/03/21 07:05:09;;;;;;;9.95;3.28;;;;;;;10.50;100.00;101294.78;5111420;28;20056;-65
2023/03/21 07:07:37;;;;;;;11.80;4.00;;;;;;;10.69;100.00;101300.72;5097466;28;20097;-67
2023/03/21 07:10:06;;;;;;;11.70;4.38;;;;;;;10.62;100.00;101303.63;5122384;28;20123;-66
2023/03/21 07:12:42;;;;;;;12.82;4.88;;;;;;;10.53;100.00;101291.53;5106009;28;20067;-66
2023/03/21 07:15:25;;;;;;;10.68;3.88;;;;;;;10.57;100.00;101306.31;5115174;28;20035;-66
2023/03/21 07:17:53;;;;;;;14.07;5.40;;;;;;;10.43;100.00;101303.16;5116116;28;20048;-66
2023/03/21 07:20:21;;;;;;;9.50;2.70;;;;;;;10.55;100.00;101309.28;5114791;28;20055;-66
2023/03/21 07:22:48;;;;;;;9.55;3.85;;;;;;;10.72;100.00;101306.47;5114237;28;20054;-66
2023/03/21 07:25:16;;;;;;;11.35;3.60;;;;;;;10.82;100.00;101308.47;5098736;28;20039;-66
2023/03/21 07:27:45;;;;;;;33.97;7.93;;;;;;;10.91;100.00;101314.28;5116031;28;20492;-65
2023/03/21 07:30:13;;;;;;;40.00;10.35;;;;;;;10.80;100.00;101324.25;5115154;28;20484;-65
2023/03/21 07:32:41;;;;;;;33.78;8.45;;;;;;;10.93;100.00;101312.13;5073181;27;20059;-66
2023/03/21 07:35:12;;;;;;;19.95;6.32;;;;;;;10.78;100.00;101318.25;5092974;27;20139;-67
2023/03/21 07:37:41;;;;;;;15.38;6.68;;;;;;;10.67;100.00;101320.03;5094392;28;20074;-66
2023/03/21 07:40:12;;;;;;;14.70;5.93;;;;;;;10.63;100.00;101319.75;5077852;28;20051;-66
2023/03/21 07:42:40;;;;;;;18.33;9.35;;;;;;;10.54;100.00;101315.81;5084491;28;20387;-66
2023/03/21 07:45:14;;;;;;;14.70;8.10;;;;;;;10.47;100.00;101315.19;5110597;28;20086;-66
2023/03/21 07:47:45;;;;;;;17.70;7.78;;;;;;;10.64;100.00;101321.38;5099370;28;20097;-66
2023/03/21 07:50:13;;;;;;;19.55;9.15;;;;;;;10.64;100.00;101315.94;5114550;28;20062;-66
2023/03/21 07:52:41;;;;;;;13.38;4.70;;;;;;;10.63;100.00;101319.75;5114821;27;20043;-65
2023/03/21 07:55:09;;;;;;;14.88;7.88;;;;;;;10.64;100.00;101320.56;5115288;28;20050;-66
2023/03/21 07:57:36;;;;;;;13.98;6.05;;;;;;;10.65;100.00;101317.59;5113493;28;20055;-66
2023/03/21 08:00:06;;;;;;;14.48;6.45;;;;;;;10.67;100.00;101309.13;5114661;28;20127;-66
2023/03/21 08:02:39;;;;;;;16.38;6.50;;;;;;;10.80;100.00;101306.00;5098088;28;20078;-66
2023/03/21 08:05:09;;;;;;;16.08;5.60;;;;;;;10.81;100.00;101309.56;5113694;28;20075;-65
2023/03/21 08:07:37;;;;;;;12.15;4.88;;;;;;;10.71;100.00;101309.47;5113846;28;20069;-65
2023/03/21 08:10:05;;;;;;;16.45;5.82;;;;;;;10.70;100.00;101310.53;5115340;28;20089;-65
2023/03/21 08:12:32;;;;;;;16.42;5.50;;;;;;;10.62;100.00;101300.91;5114710;28;20047;-67
2023/03/21 08:15:00;;;;;;;14.30;5.85;;;;;;;10.64;100.00;101298.75;5114286;28;20393;-67
2023/03/21 08:17:28;;;;;;;14.18;5.22;;;;;;;10.72;100.00;101295.56;5115341;28;20043;-67
2023/03/21 08:19:55;;;;;;;15.90;5.40;;;;;;;10.75;100.00;101288.75;5113687;28;20047;-65
2023/03/21 08:22:23;;;;;;;17.38;5.78;;;;;;;10.78;100.00;101282.81;5114338;28;20058;-65
2023/03/21 08:24:51;;;;;;;16.65;5.38;;;;;;;10.76;100.00;101274.91;5114464;28;20499;-66
2023/03/21 08:27:19;;;;;;;18.08;5.85;;;;;;;10.85;100.00;101276.06;5114697;28;20126;-65
2023/03/21 08:29:47;;;;;;;15.60;5.68;;;;;;;10.82;100.00;101278.47;5113373;28;20495;-65
2023/03/21 08:32:18;;;;;;;14.13;5.10;;;;;;;10.71;100.00;101271.31;5113390;28;20047;-65
2023/03/21 08:34:45;;;;;;;19.55;5.50;;;;;;;10.77;100.00;101264.81;5114644;28;20123;-65
2023/03/21 08:37:13;;;;;;;13.10;4.57;;;;;;;10.71;100.00;101266.66;5113637;28;20514;-66
2023/03/21 08:39:41;;;;;;;15.20;5.72;;;;;;;10.73;100.00;101259.06;5114422;28;20047;-66
2023/03/21 08:42:09;;;;;;;16.55;6.40;;;;;;;10.74;100.00;101254.44;5114323;28;20047;-66
2023/03/21 08:44:37;;;;;;;14.35;5.13;;;;;;;10.62;100.00;101252.69;5113508;28;20047;-66
2023/03/21 08:47:05;;;;;;;11.93;5.15;;;;;;;10.58;100.00;101265.19;5114296;28;20047;-66
2023/03/21 08:49:36;;;;;;;12.35;4.95;;;;;;;10.60;100.00;101262.19;5114248;28;20047;-66
2023/03/21 08:52:05;;;;;;;13.57;5.05;;;;;;;10.74;100.00;101265.34;5114271;28;20050;-66
2023/03/21 08:54:32;;;;;;;14.07;4.97;;;;;;;10.77;100.00;101267.53;5113053;28;20050;-66
2023/03/21 08:57:00;;;;;;;15.05;5.30;;;;;;;10.79;100.00;101273.56;5096094;28;20449;-66
2023/03/21 08:59:28;;;;;;;14.30;5.60;;;;;;;10.75;100.00;101264.25;5114466;28;20048;-67
2023/03/21 09:01:56;;;;;;;16.98;5.53;;;;;;;10.92;100.00;101264.13;5112961;28;20126;-64
2023/03/21 09:04:24;;;;;;;17.20;5.65;;;;;;;10.81;100.00;101260.50;5113877;28;20060;-65
2023/03/21 09:06:55;;;;;;;11.57;4.50;;;;;;;10.80;100.00;101254.22;5113759;28;20480;-64
2023/03/21 09:09:25;;;;;;;15.60;6.28;;;;;;;10.71;100.00;101255.78;5113256;28;20076;-65
2023/03/21 09:11:53;;;;;;;11.55;5.47;;;;;;;10.63;100.00;101258.94;5112754;28;20051;-64
2023/03/21 09:14:20;;;;;;;10.45;5.03;;;;;;;10.58;100.00;101246.13;5114044;28;20457;-65
2023/03/21 09:16:55;;;;;;;12.93;5.20;;;;;;;10.58;100.00;101248.00;5114139;28;20044;-65
2023/03/21 09:19:23;;;;;;;14.30;5.38;;;;;;;10.56;100.00;101240.09;5112597;28;20128;-65
2023/03/21 09:21:52;;;;;;;17.67;5.43;;;;;;;10.50;100.00;101245.75;5114134;28;20127;-65
2023/03/21 09:24:20;;;;;;;12.02;5.50;;;;;;;10.49;100.00;101236.75;5114209;28;20083;-68
2023/03/21 09:26:50;;;;;;;13.32;5.15;;;;;;;10.50;100.00;101243.84;5113275;28;20047;-66
2023/03/21 09:29:20;;;;;;;15.45;5.78;;;;;;;10.54;100.00;101228.63;5113731;28;20039;-66
2023/03/21 09:31:48;;;;;;;12.05;5.03;;;;;;;10.54;100.00;101234.09;5113409;28;20388;-66
2023/03/21 09:34:16;;;;;;;12.82;4.93;;;;;;;10.61;100.00;101234.69;5114125;28;20079;-65
2023/03/21 09:36:47;;;;;;;11.68;5.07;;;;;;;10.75;100.00;101239.72;5095415;28;20138;-66
2023/03/21 09:39:15;;;;;;;12.93;4.53;;;;;;;10.73;100.00;101231.00;5113946;28;20059;-65
2023/03/21 09:42:05;;;;;;;14.45;5.00;;;;;;;10.87;100.00;101224.00;5112522;28;20070;-65
2023/03/21 09:44:48;;;;;;;11.70;5.05;;;;;;;10.81;100.00;101222.34;5095648;28;20123;-65
2023/03/21 09:47:33;;;;;;;15.48;5.60;;;;;;;10.77;100.00;101226.66;5112826;28;20071;-65
2023/03/21 09:50:09;;;;;;;11.43;4.25;;;;;;;10.79;100.00;101230.75;5112684;28;20105;-65
2023/03/21 09:52:42;;;;;;;13.35;5.93;;;;;;;10.78;100.00;101223.69;5113631;28;20504;-65
2023/03/21 09:55:25;;;;;;;14.57;6.28;;;;;;;10.69;100.00;101216.22;5113046;28;20058;-65
2023/03/21 09:58:25;;;;;;;16.88;6.68;;;;;;;10.60;100.00;101211.22;5112067;28;20090;-67
2023/03/21 10:01:32;;;;;;;13.90;6.63;;;;;;;10.57;100.00;101206.31;5086823;28;20091;-65
2023/03/21 10:04:06;;;;;;;12.63;6.25;;;;;;;10.58;100.00;101202.53;5092253;28;20036;-65
2023/03/21 10:06:39;;;;;;;14.32;5.38;;;;;;;10.62;100.00;101200.91;5093397;28;20106;-66
2023/03/21 10:09:11;;;;;;;11.13;5.50;;;;;;;10.68;100.00;101200.94;5092140;28;20130;-65
2023/03/21 10:11:52;;;;;;;16.02;5.05;;;;;;;10.74;100.00;101189.03;5092491;28;20048;-64
2023/03/21 10:14:31;;;;;;;12.80;5.63;;;;;;;10.72;100.00;101192.00;5075816;28;20068;-65
2023/03/21 10:17:22;;;;;;;14.05;5.35;;;;;;;10.82;100.00;101185.81;5098647;28;20194;-65
2023/03/21 10:20:13;;;;;;;14.75;5.28;;;;;;;10.99;100.00;101194.69;5082390;28;20062;-65
2023/03/21 10:22:43;;;;;;;14.68;5.88;;;;;;;11.11;100.00;101182.75;5091511;28;20126;-66
2023/03/21 10:25:15;;;;;;;13.88;5.50;;;;;;;11.17;100.00;101184.44;5095153;28;20058;-66
2023/03/21 10:27:43;;;;;;;11.88;4.50;;;;;;;11.05;100.00;101185.44;5095774;28;20389;-64
2023/03/21 10:30:38;;;;;;;12.40;4.97;;;;;;;11.03;100.00;101187.59;5079065;28;20072;-66
2023/03/21 10:33:10;;;;;;;15.52;5.03;;;;;;;11.23;100.00;101180.63;5095356;28;20051;-65
2023/03/21 10:35:39;;;;;;;15.32;5.30;;;;;;;11.44;100.00;101187.84;5095292;28;20043;-66
2023/03/21 10:38:17;;;;;;;11.80;4.78;;;;;;;11.39;100.00;101176.91;5096139;28;20052;-65
2023/03/21 10:40:45;;;;;;;13.73;4.65;;;;;;;11.36;100.00;101176.63;5096075;28;20048;-65
2023/03/21 10:43:36;;;;;;;10.55;4.00;;;;;;;11.28;100.00;101169.75;5096908;28;20043;-66
2023/03/21 10:46:13;;;;;;;11.63;4.32;;;;;;;11.52;100.00;101173.72;5063099;28;20522;-66
2023/03/21 10:48:44;;;;;;;;;;;;;;;11.68;100.00;101173.78;5097066;28;20118;-66
2023/03/21 10:51:26;;;;;;;13.70;5.28;;;;;;;11.68;100.00;101169.13;5081052;28;20010;-65
2023/03/21 10:54:21;;;;;;;13.25;4.53;;;;;;;11.86;100.00;101172.50;5087901;28;20045;-66
2023/03/21 10:57:10;;;;;;;12.20;5.00;;;;;;;11.94;100.00;101172.81;5114527;28;20496;-66
2023/03/21 10:59:42;;;;;;;12.10;4.05;;;;;;;12.02;100.00;101170.63;5117895;28;20047;-66
2023/03/21 11:02:24;;;;;;;14.82;4.95;;;;;;;12.12;100.00;101176.13;5126605;28;20044;-66
2023/03/21 11:04:54;;;;;;;11.43;4.32;;;;;;;12.12;100.00;101168.78;5105688;28;20051;-66
2023/03/21 11:07:24;;;;;;;11.27;3.80;;;;;;;12.26;100.00;101168.25;5099542;28;20048;-65
2023/03/21 11:10:00;;;;;;;13.82;4.70;;;;;;;12.51;100.00;101179.22;5095319;28;20459;-66
2023/03/21 11:12:37;;;;;;;11.20;4.13;;;;;;;12.54;100.00;101177.84;5097080;28;20059;-66
2023/03/21 11:15:28;;;;;;;15.43;4.03;;;;;;;12.50;100.00;101171.28;5099627;28;20476;-66
2023/03/21 11:18:11;;;;;;;8.98;3.92;;;;;;;12.65;100.00;101171.28;5095452;28;20055;-66
2023/03/21 11:20:48;;;;;;;10.15;4.15;;;;;;;12.54;100.00;101166.91;5077575;28;20131;-65
2023/03/21 11:23:19;;;;;;;13.57;3.55;;;;;;;12.61;100.00;101163.91;5095368;28;20040;-67
2023/03/21 11:25:49;;;;;;;8.20;3.33;;;;;;;12.87;100.00;101157.34;5094450;28;20044;-66
2023/03/21 11:28:20;;;;;;;11.57;4.40;;;;;;;12.77;100.00;101171.00;5094230;28;20373;-65
2023/03/21 11:30:56;;;;;;;12.15;4.63;;;;;;;12.55;100.00;101161.19;5094470;28;20048;-66
2023/03/21 11:33:45;;;;;;;11.02;3.65;;;;;;;12.43;100.00;101159.78;5078699;28;20081;-66
2023/03/21 11:36:18;;;;;;;11.20;3.65;;;;;;;12.50;100.00;101160.34;4392036;28;10000396;-67
2023/03/21 11:38:51;;;;;;;8.10;3.47;;;;;;;12.52;100.00;101158.97;5111010;28;20130;-67
2023/03/21 11:41:29;;;;;;;9.63;3.75;;;;;;;12.49;100.00;101170.47;5110966;28;20040;-67
2023/03/21 11:43:58;;;;;;;8.90;3.83;;;;;;;12.60;100.00;101162.25;5111763;28;20126;-66